Terminal Aerodrome Forecast
Issued by NWS Shreveport, LA

Home | Current Version | Previous Version | Text Only | Print | Product List | Glossary On
Versions: 1 2 3 4 5 6 7 8 9 10 11 12 13 14 15
000
FTUS44 KSHV 300900 AAA
TAFTYR
TAF AMD
KTYR 300934Z 3010/3106 15005KT P6SM BKN015 OVC025
      TEMPO 3010/3014 BKN025
     FM301400 17005KT P6SM BKN015
     FM301600 16007KT P6SM BKN050=

USA.gov is the U.S. government's official web portal to all federal, state and local government web resources and services.